首页
METAR-TAF:

METAR-TAF

机场 :

Princeton Municipal Airport

普林斯顿, 明尼蘇達州, 美国

纬度: 45-33N, 经度: 093-36W, 海拔: 298米

当前天气观测

该预报发布于7分钟前的00:16 UTC
风速8节,风向南转南东
温度 1°C
湿度 80%
气压 1009 hPa
能見度: 16.1公里
天空无云

METAR: KPNM 080016Z AUTO 15008KT 10SM CLR 01/M02 A2979 RMK AO2

时间: 18:23 (00:23 UTC)


TAF: 丢失

超过4000个机场的气象观测和天气预报(METAR&TAF报告)。

可查询的气象台以黄色和红色小点在地图上表示。

将鼠标移到小点上方,可查看气象台名称。

然后点击查看天气观测和预报。

如需切换地图:点击带黑十字的绿色按钮放大地图;点击带横线的绿色按钮缩小地图;或者点击绿色箭头查看邻近地区的地图。


METAR-TAF: